Time;durP1;ratioP1;P1;durP2;ratioP2;P2;SDS_P1;SDS_P2;PMS_P1;PMS_P2;Temp;Humidity;BMP_temperature;BMP_pressure;BME280_temperature;BME280_humidity;BME280_pressure;Samples;Min_cycle;Max_cycle;Signal;HPM_P1;HPM_P2
2021/03/11 00:00:30;;;;;;;66.40;59.85;;;6.30;99.90;;;;;;5055154;28;20052;-69
2021/03/11 00:02:57;;;;;;;57.33;50.97;;;6.30;99.90;;;;;;5025581;28;20227;-69
2021/03/11 00:05:23;;;;;;;42.63;38.33;;;6.30;99.90;;;;;;5024538;28;20070;-69
2021/03/11 00:07:50;;;;;;;36.92;31.08;;;6.30;99.90;;;;;;5022006;28;20098;-69
2021/03/11 00:10:16;;;;;;;30.02;25.23;;;6.30;99.90;;;;;;5031488;28;20087;-69
2021/03/11 00:12:44;;;;;;;31.02;23.05;;;6.30;99.90;;;;;;5017863;28;20492;-69
2021/03/11 00:15:18;;;;;;;39.67;30.95;;;6.30;99.90;;;;;;5042279;28;20046;-69
2021/03/11 00:17:46;;;;;;;47.65;35.35;;;6.40;99.90;;;;;;5035602;28;20481;-69
2021/03/11 00:20:15;;;;;;;102.00;91.80;;;6.40;99.90;;;;;;5023570;28;20450;-70
2021/03/11 00:22:46;;;;;;;41.17;36.83;;;6.50;99.90;;;;;;5044194;28;20050;-69
2021/03/11 00:25:14;;;;;;;27.52;21.13;;;6.60;99.90;;;;;;5023699;27;20127;-70
2021/03/11 00:27:40;;;;;;;33.40;26.90;;;6.60;99.90;;;;;;5041803;28;20512;-69
2021/03/11 00:30:09;;;;;;;33.55;26.83;;;6.60;99.90;;;;;;5030191;28;20052;-69
2021/03/11 00:32:36;;;;;;;32.03;25.40;;;6.70;99.90;;;;;;5041238;28;20433;-69
2021/03/11 00:35:04;;;;;;;27.00;19.65;;;6.70;99.90;;;;;;5027004;28;20170;-70
2021/03/11 00:37:30;;;;;;;33.20;27.40;;;6.80;99.90;;;;;;5035695;28;20054;-69
2021/03/11 00:39:56;;;;;;;25.75;21.92;;;6.80;99.90;;;;;;5018478;28;20132;-70
2021/03/11 00:42:23;;;;;;;34.67;25.75;;;6.90;99.90;;;;;;5040214;28;20052;-70
2021/03/11 00:44:49;;;;;;;24.83;18.45;;;6.90;99.90;;;;;;5049442;28;20412;-70
2021/03/11 00:47:16;;;;;;;30.30;22.98;;;7.00;99.90;;;;;;5029693;28;20157;-70
2021/03/11 00:49:43;;;;;;;39.53;35.28;;;7.00;99.90;;;;;;5035392;28;20062;-70
2021/03/11 00:52:12;;;;;;;31.30;27.98;;;7.10;99.90;;;;;;5017990;28;20108;-70
2021/03/11 00:54:38;;;;;;;26.02;19.33;;;7.10;99.90;;;;;;5035045;28;20075;-70
2021/03/11 00:57:05;;;;;;;26.13;22.40;;;7.10;99.90;;;;;;5020864;28;20125;-69
2021/03/11 00:59:32;;;;;;;159.93;111.40;;;7.10;99.90;;;;;;5049606;28;20129;-70
2021/03/11 01:01:59;;;;;;;23.92;18.15;;;7.10;99.90;;;;;;5019932;28;20432;-69
2021/03/11 01:04:25;;;;;;;44.72;35.58;;;7.20;99.90;;;;;;5027483;28;20056;-69
2021/03/11 01:06:52;;;;;;;76.07;57.92;;;7.20;99.90;;;;;;5013330;28;20046;-70
2021/03/11 01:09:18;;;;;;;27.60;24.60;;;7.20;99.90;;;;;;5052568;28;20035;-70
2021/03/11 01:11:44;;;;;;;27.73;23.38;;;7.20;99.90;;;;;;5019165;28;20042;-69
2021/03/11 01:14:10;;;;;;;28.67;22.95;;;7.10;99.90;;;;;;5033032;28;20046;-69
2021/03/11 01:16:37;;;;;;;48.70;43.97;;;7.10;99.90;;;;;;5007522;28;20038;-69
2021/03/11 01:19:03;;;;;;;42.58;38.50;;;7.10;99.90;;;;;;5052387;28;20562;-69
2021/03/11 01:21:29;;;;;;;50.90;46.15;;;7.10;99.90;;;;;;5012267;28;20049;-69
2021/03/11 01:24:13;;;;;;;46.13;42.15;;;7.10;99.90;;;;;;5038529;28;20064;-69
2021/03/11 01:26:39;;;;;;;103.90;94.82;;;7.10;99.90;;;;;;5000544;28;20452;-70
2021/03/11 01:29:06;;;;;;;39.15;35.80;;;7.10;99.90;;;;;;5045119;28;20042;-70
2021/03/11 01:31:32;;;;;;;85.53;79.13;;;7.10;99.90;;;;;;5017773;28;20069;-69
2021/03/11 01:33:58;;;;;;;95.65;88.30;;;7.10;99.90;;;;;;5026891;28;20042;-69
2021/03/11 01:36:24;;;;;;;164.32;151.57;;;7.10;99.90;;;;;;5003880;28;20042;-69
2021/03/11 01:38:50;;;;;;;64.47;59.70;;;7.10;99.90;;;;;;5004823;28;20095;-69
2021/03/11 01:41:17;;;;;;;89.25;82.30;;;7.10;99.90;;;;;;5017118;28;20046;-70
2021/03/11 01:43:43;;;;;;;123.40;114.00;;;7.20;99.90;;;;;;5024280;28;20485;-69
2021/03/11 01:46:09;;;;;;;104.00;96.05;;;7.20;99.90;;;;;;5034499;28;20046;-70
2021/03/11 01:48:36;;;;;;;76.40;70.40;;;7.30;99.90;;;;;;5027541;28;20038;-70
2021/03/11 01:51:03;;;;;;;104.20;96.18;;;7.30;99.90;;;;;;5033677;28;20477;-69
2021/03/11 01:53:30;;;;;;;114.22;105.65;;;7.40;99.90;;;;;;5018141;28;20140;-70
2021/03/11 01:55:57;;;;;;;183.00;168.90;;;7.40;99.90;;;;;;5008803;28;20342;-69
2021/03/11 01:58:25;;;;;;;110.57;100.90;;;7.50;99.90;;;;;;5007638;28;20065;-70
2021/03/11 02:00:54;;;;;;;165.05;151.82;;;7.50;99.90;;;;;;5031892;28;20148;-70
2021/03/11 02:03:21;;;;;;;136.10;126.63;;;7.60;99.90;;;;;;5015859;28;20138;-70
2021/03/11 02:05:47;;;;;;;200.77;186.73;;;7.60;99.90;;;;;;5002055;28;20042;-70
2021/03/11 02:08:13;;;;;;;192.15;179.98;;;7.50;99.90;;;;;;5016791;28;20042;-69
2021/03/11 02:10:40;;;;;;;113.55;106.50;;;7.60;99.90;;;;;;5013275;28;20041;-69
2021/03/11 02:13:43;;;;;;;278.35;260.48;;;7.60;99.90;;;;;;5003695;28;20038;-70
2021/03/11 02:16:28;;;;;;;180.07;168.75;;;7.60;99.90;;;;;;5011885;28;20048;-69
2021/03/11 02:19:03;;;;;;;356.45;332.73;;;7.60;99.90;;;;;;5009954;28;20447;-69
2021/03/11 02:21:36;;;;;;;256.50;241.10;;;7.60;99.90;;;;;;5010412;28;20425;-70
2021/03/11 02:24:22;;;;;;;216.02;203.25;;;7.60;99.90;;;;;;5037399;28;20054;-70
2021/03/11 02:27:16;;;;;;;152.82;144.20;;;7.60;99.90;;;;;;5010602;28;20129;-70
2021/03/11 02:29:44;;;;;;;324.67;304.70;;;7.60;99.90;;;;;;5023161;28;20391;-70
2021/03/11 02:36:29;;;;;;;194.85;184.20;;;7.70;99.90;;;;;;5005490;28;20030;-70
2021/03/11 02:38:58;;;;;;;241.15;227.07;;;7.70;99.90;;;;;;5004719;28;20080;-69
2021/03/11 02:41:26;;;;;;;168.98;158.70;;;7.80;99.90;;;;;;5009186;28;20058;-70
2021/03/11 02:43:53;;;;;;;299.60;278.73;;;7.80;99.90;;;;;;5100258;27;20068;-70
2021/03/11 02:46:20;;;;;;;195.05;183.80;;;7.80;99.90;;;;;;5006453;28;20128;-69
2021/03/11 02:48:50;;;;;;;234.85;221.07;;;7.80;99.90;;;;;;5009799;28;20416;-70
2021/03/11 02:51:18;;;;;;;193.27;181.95;;;7.90;99.90;;;;;;5037830;28;20165;-69
2021/03/11 02:53:44;;;;;;;275.88;257.83;;;7.90;99.90;;;;;;5017996;28;20566;-69
2021/03/11 02:56:11;;;;;;;143.18;135.27;;;7.90;99.90;;;;;;5060629;28;20043;-69
2021/03/11 02:58:40;;;;;;;278.98;261.70;;;7.80;99.90;;;;;;5018284;28;20145;-69
2021/03/11 03:01:10;;;;;;;294.50;276.15;;;7.80;99.90;;;;;;5042376;28;20122;-69
2021/03/11 03:03:37;;;;;;;179.98;169.60;;;7.80;99.90;;;;;;5019969;28;20078;-69
2021/03/11 03:06:04;;;;;;;240.80;226.13;;;7.80;99.90;;;;;;5026081;28;20054;-69
2021/03/11 03:08:31;;;;;;;364.35;343.15;;;7.80;99.90;;;;;;5012745;28;20116;-69
2021/03/11 03:10:58;;;;;;;219.80;206.88;;;7.80;99.90;;;;;;5023646;28;20047;-69
2021/03/11 03:13:25;;;;;;;239.13;224.68;;;7.80;99.90;;;;;;5008477;28;20042;-69
2021/03/11 03:15:56;;;;;;;266.40;250.27;;;7.80;99.90;;;;;;5054595;28;20040;-69
2021/03/11 03:18:23;;;;;;;133.60;126.68;;;7.80;99.90;;;;;;5001155;28;20050;-69
2021/03/11 03:20:50;;;;;;;363.40;339.52;;;7.80;99.90;;;;;;5012158;28;20101;-69
2021/03/11 03:23:20;;;;;;;105.10;99.00;;;7.80;99.90;;;;;;5004848;28;20089;-69
2021/03/11 03:25:48;;;;;;;123.25;116.55;;;7.80;99.90;;;;;;5033958;28;20046;-69
2021/03/11 03:28:15;;;;;;;334.70;315.55;;;7.80;99.90;;;;;;5014386;28;20049;-69
2021/03/11 03:30:42;;;;;;;219.93;206.95;;;7.90;99.90;;;;;;5029516;28;20092;-68
2021/03/11 03:33:11;;;;;;;173.60;163.05;;;7.90;99.90;;;;;;5018836;28;20541;-69
2021/03/11 03:35:38;;;;;;;206.85;195.40;;;7.90;99.90;;;;;;5010485;28;20486;-69
2021/03/11 03:38:05;;;;;;;110.18;104.00;;;7.90;99.90;;;;;;5008355;28;20380;-69
2021/03/11 03:40:31;;;;;;;120.10;113.32;;;7.90;99.90;;;;;;5005893;28;20046;-69
2021/03/11 03:43:11;;;;;;;182.43;172.45;;;8.00;99.90;;;;;;5035635;28;20057;-68
2021/03/11 03:45:42;;;;;;;216.13;204.32;;;8.00;99.90;;;;;;5006200;28;20447;-68
2021/03/11 03:48:18;;;;;;;393.67;368.80;;;8.00;99.90;;;;;;5032831;28;20050;-68
2021/03/11 03:50:48;;;;;;;238.63;222.93;;;8.00;99.90;;;;;;5048663;28;20511;-68
2021/03/11 03:53:24;;;;;;;233.68;218.60;;;8.00;99.90;;;;;;5030780;28;20050;-68
2021/03/11 03:56:11;;;;;;;147.52;138.35;;;8.10;99.90;;;;;;5034478;28;20070;-68
2021/03/11 03:58:39;;;;;;;185.88;174.65;;;8.10;99.90;;;;;;5008579;28;20138;-68
2021/03/11 04:01:05;;;;;;;289.58;271.98;;;8.20;99.90;;;;;;5044106;28;20039;-69
2021/03/11 04:03:32;;;;;;;263.30;248.77;;;8.20;99.90;;;;;;5026847;28;20050;-69
2021/03/11 04:06:00;;;;;;;230.93;217.75;;;8.20;99.90;;;;;;5050761;28;20050;-69
2021/03/11 04:08:27;;;;;;;168.25;156.50;;;8.30;99.90;;;;;;5015338;28;20046;-68
2021/03/11 04:10:56;;;;;;;200.55;189.70;;;8.30;99.90;;;;;;5064000;28;20259;-69
2021/03/11 04:13:22;;;;;;;354.15;329.80;;;8.40;99.90;;;;;;5008753;28;20048;-69
2021/03/11 04:15:49;;;;;;;133.00;125.70;;;8.40;99.90;;;;;;5058261;28;20041;-69
2021/03/11 04:18:16;;;;;;;123.00;114.47;;;8.40;99.90;;;;;;5011031;28;20065;-68
2021/03/11 04:20:45;;;;;;;423.20;395.58;;;8.50;99.90;;;;;;5034370;28;20054;-68
2021/03/11 04:23:11;;;;;;;78.75;73.95;;;8.50;99.90;;;;;;5009764;28;20514;-69
2021/03/11 04:25:38;;;;;;;202.45;190.93;;;8.60;99.90;;;;;;5035360;28;20049;-69
2021/03/11 04:28:04;;;;;;;86.30;80.80;;;8.60;99.90;;;;;;5027036;28;20106;-69
2021/03/11 04:30:31;;;;;;;162.30;152.85;;;8.60;99.90;;;;;;5031651;28;20073;-69
2021/03/11 04:32:57;;;;;;;100.00;94.30;;;8.70;99.90;;;;;;5028086;28;20106;-69
2021/03/11 04:35:24;;;;;;;224.77;212.50;;;8.70;99.90;;;;;;5018120;28;20106;-69
2021/03/11 04:37:50;;;;;;;108.78;102.30;;;8.70;99.90;;;;;;5023860;28;20562;-69
2021/03/11 04:40:17;;;;;;;117.05;110.55;;;8.80;99.90;;;;;;5047281;28;20050;-69
2021/03/11 04:42:45;;;;;;;195.82;184.45;;;8.80;99.90;;;;;;5007563;28;20513;-69
2021/03/11 04:45:11;;;;;;;491.13;456.20;;;8.80;99.90;;;;;;5010386;28;20426;-69
2021/03/11 04:47:38;;;;;;;132.27;125.00;;;8.80;99.90;;;;;;5001993;28;20050;-70
2021/03/11 04:50:06;;;;;;;102.90;96.97;;;8.90;99.90;;;;;;5027897;28;20092;-70
2021/03/11 04:52:36;;;;;;;202.20;190.50;;;8.90;99.90;;;;;;5013264;28;20042;-69
2021/03/11 04:55:04;;;;;;;81.00;76.25;;;9.00;99.90;;;;;;5008627;28;20439;-69
2021/03/11 04:57:31;;;;;;;442.40;411.77;;;9.00;99.90;;;;;;5013293;28;20046;-69
2021/03/11 04:59:59;;;;;;;174.70;163.70;;;9.10;99.90;;;;;;5009049;28;20075;-69
2021/03/11 05:02:32;;;;;;;237.18;222.60;;;9.10;99.90;;;;;;5017623;28;20548;-69
2021/03/11 05:05:01;;;;;;;229.23;216.25;;;9.20;99.90;;;;;;5000513;28;20046;-69
2021/03/11 05:07:28;;;;;;;235.77;222.35;;;9.20;99.90;;;;;;5096324;27;20046;-69
2021/03/11 05:09:54;;;;;;;197.85;185.93;;;9.20;99.90;;;;;;4996199;28;20054;-69
2021/03/11 05:12:20;;;;;;;148.45;139.95;;;9.20;99.90;;;;;;5005971;28;20046;-69
2021/03/11 05:14:46;;;;;;;143.32;135.10;;;9.10;99.90;;;;;;5007532;28;20080;-69
2021/03/11 05:17:12;;;;;;;140.43;132.50;;;9.10;99.90;;;;;;5035281;28;20373;-69
2021/03/11 05:19:39;;;;;;;312.48;290.30;;;9.20;99.90;;;;;;5045954;28;20042;-69
2021/03/11 05:22:05;;;;;;;327.65;307.27;;;9.20;99.90;;;;;;5036633;28;20133;-69
2021/03/11 05:24:31;;;;;;;370.02;341.63;;;9.20;99.90;;;;;;5018383;28;20055;-69
2021/03/11 05:27:12;;;;;;;228.38;215.30;;;9.10;99.90;;;;;;5029639;28;20046;-69
2021/03/11 05:29:38;;;;;;;303.30;282.70;;;9.10;99.90;;;;;;5060509;28;20151;-69
2021/03/11 05:32:05;;;;;;;162.02;152.57;;;9.10;99.90;;;;;;5034794;28;20057;-69
2021/03/11 05:34:31;;;;;;;122.05;114.45;;;9.10;99.90;;;;;;5030617;28;20104;-69
2021/03/11 05:36:57;;;;;;;139.10;130.88;;;9.00;99.90;;;;;;5004937;28;20045;-69
2021/03/11 05:39:23;;;;;;;168.13;158.88;;;9.00;99.90;;;;;;5017844;28;20473;-69
2021/03/11 05:41:50;;;;;;;111.93;105.55;;;9.00;99.90;;;;;;5015354;28;20415;-69
2021/03/11 05:44:17;;;;;;;172.23;161.43;;;9.00;99.90;;;;;;5024183;28;20055;-69
2021/03/11 05:46:44;;;;;;;168.35;158.20;;;9.00;99.90;;;;;;5005341;28;20431;-69
2021/03/11 05:49:12;;;;;;;220.07;208.27;;;8.90;99.90;;;;;;5012211;28;20050;-69
2021/03/11 05:51:39;;;;;;;116.97;110.28;;;9.00;99.90;;;;;;5018444;28;20054;-69
2021/03/11 05:54:05;;;;;;;143.70;135.73;;;9.00;99.90;;;;;;5002109;28;20133;-69
2021/03/11 05:56:32;;;;;;;220.13;206.68;;;9.00;99.90;;;;;;4998988;28;21861;-69
2021/03/11 05:59:00;;;;;;;145.65;137.38;;;9.00;99.90;;;;;;4997403;28;20073;-69
2021/03/11 06:01:30;;;;;;;251.75;238.75;;;9.00;99.90;;;;;;5002415;28;20477;-69
2021/03/11 06:03:59;;;;;;;341.70;320.17;;;9.00;99.90;;;;;;5104157;27;20136;-69
2021/03/11 06:06:27;;;;;;;179.43;169.57;;;9.00;99.90;;;;;;5030671;28;20134;-69
2021/03/11 06:08:55;;;;;;;101.03;94.88;;;9.10;99.90;;;;;;5001340;28;20095;-69
2021/03/11 06:11:22;;;;;;;324.92;305.20;;;9.10;99.90;;;;;;4998586;28;20466;-69
2021/03/11 06:13:50;;;;;;;186.63;176.13;;;9.10;99.90;;;;;;5002092;28;20054;-69
2021/03/11 06:16:24;;;;;;;255.75;239.48;;;9.20;99.90;;;;;;5031535;28;20114;-69
2021/03/11 06:18:51;;;;;;;95.55;90.20;;;9.30;99.90;;;;;;5000077;28;20049;-69
2021/03/11 06:21:18;;;;;;;257.98;243.35;;;9.30;99.90;;;;;;5099294;27;20051;-69
2021/03/11 06:23:45;;;;;;;237.07;223.10;;;9.40;99.90;;;;;;5021660;28;20138;-69
2021/03/11 06:26:12;;;;;;;309.40;288.98;;;9.40;99.90;;;;;;5019047;28;20041;-69
2021/03/11 06:28:44;;;;;;;187.27;176.45;;;9.50;99.90;;;;;;5048252;28;20564;-69
2021/03/11 06:31:20;;;;;;;335.45;315.08;;;9.50;99.90;;;;;;5039591;28;20042;-69
2021/03/11 06:33:52;;;;;;;196.15;185.27;;;9.60;99.90;;;;;;5058509;28;20042;-69
2021/03/11 06:36:20;;;;;;;331.02;310.75;;;9.70;99.90;;;;;;5026249;28;20514;-69
2021/03/11 06:38:47;;;;;;;407.30;379.67;;;9.80;99.90;;;;;;5028014;28;20078;-69
2021/03/11 06:41:14;;;;;;;516.47;482.05;;;9.80;99.90;;;;;;5015082;28;20599;-69
2021/03/11 06:43:56;;;;;;;111.65;105.60;;;10.00;99.90;;;;;;5091271;27;20049;-69
2021/03/11 06:46:24;;;;;;;136.13;129.18;;;10.10;99.90;;;;;;5018068;28;20733;-69
2021/03/11 06:49:05;;;;;;;282.52;265.58;;;10.10;99.90;;;;;;5014075;28;20745;-69
2021/03/11 06:51:32;;;;;;;178.60;169.35;;;10.20;99.90;;;;;;5018037;28;20066;-69
2021/03/11 06:54:00;;;;;;;171.00;161.45;;;10.20;99.90;;;;;;5029554;28;20038;-69
2021/03/11 06:56:27;;;;;;;107.15;101.75;;;10.20;99.90;;;;;;5023000;28;20458;-69
2021/03/11 06:59:01;;;;;;;480.63;449.60;;;10.30;99.90;;;;;;5011060;28;20080;-69
2021/03/11 07:01:30;;;;;;;567.33;527.95;;;10.30;99.90;;;;;;5023234;28;20050;-69
2021/03/11 07:04:03;;;;;;;306.55;286.08;;;10.30;99.90;;;;;;5022221;28;20052;-69
2021/03/11 07:06:30;;;;;;;372.83;348.70;;;10.30;99.90;;;;;;5008344;28;20071;-69
2021/03/11 07:08:57;;;;;;;143.55;136.45;;;10.30;99.90;;;;;;5007365;28;20050;-69
2021/03/11 07:11:25;;;;;;;226.60;215.15;;;10.40;99.90;;;;;;5029553;28;20127;-69
2021/03/11 07:13:53;;;;;;;511.75;471.80;;;10.50;99.90;;;;;;5005586;28;20049;-69
2021/03/11 07:16:21;;;;;;;353.80;330.70;;;10.50;99.90;;;;;;5042018;28;20044;-69
2021/03/11 07:19:08;;;;;;;316.85;298.65;;;10.60;99.90;;;;;;5017493;28;20124;-69
2021/03/11 07:21:43;;;;;;;549.05;508.88;;;10.70;99.90;;;;;;5052183;28;20058;-70
2021/03/11 07:24:11;;;;;;;448.05;414.17;;;10.80;99.90;;;;;;5027943;28;20125;-69
2021/03/11 07:26:38;;;;;;;214.95;203.07;;;10.80;99.90;;;;;;5035597;28;20503;-69
2021/03/11 07:29:18;;;;;;;431.98;403.17;;;10.80;99.90;;;;;;5024441;28;20078;-70
2021/03/11 07:31:44;;;;;;;305.80;286.02;;;10.80;99.90;;;;;;5022949;28;20158;-70
2021/03/11 07:34:11;;;;;;;334.92;314.77;;;10.90;99.90;;;;;;5051339;28;20046;-69
2021/03/11 07:36:41;;;;;;;147.45;138.32;;;10.90;99.90;;;;;;5025031;28;20046;-70
2021/03/11 07:39:10;;;;;;;242.32;225.15;;;10.90;99.90;;;;;;5050191;28;20258;-70
2021/03/11 07:41:37;;;;;;;264.73;248.55;;;10.90;99.90;;;;;;5028225;28;20050;-70
2021/03/11 07:44:05;;;;;;;123.97;117.03;;;10.90;99.90;;;;;;5047055;28;20074;-70
2021/03/11 07:46:34;;;;;;;344.00;322.67;;;10.90;99.90;;;;;;5016850;28;20050;-70
2021/03/11 07:49:01;;;;;;;194.88;183.35;;;10.90;99.90;;;;;;5026937;28;20043;-70
2021/03/11 07:51:30;;;;;;;235.27;217.68;;;11.00;99.90;;;;;;5010707;28;20719;-70
2021/03/11 07:53:56;;;;;;;312.00;293.10;;;11.00;99.90;;;;;;5031837;28;20507;-70
2021/03/11 07:56:23;;;;;;;183.45;172.75;;;11.00;99.90;;;;;;5030314;28;20036;-70
2021/03/11 07:59:08;;;;;;;210.40;196.45;;;11.00;99.90;;;;;;5018988;28;20050;-70
2021/03/11 08:01:49;;;;;;;175.52;164.82;;;11.10;99.90;;;;;;5013483;28;20077;-70
2021/03/11 08:04:23;;;;;;;363.10;338.73;;;11.20;99.90;;;;;;5018223;28;20529;-70
2021/03/11 08:06:49;;;;;;;436.35;402.20;;;11.30;99.90;;;;;;5047152;28;20482;-70
2021/03/11 08:09:37;;;;;;;174.20;164.45;;;11.30;99.90;;;;;;5016409;28;20495;-70
2021/03/11 08:12:30;;;;;;;100.15;94.28;;;11.40;99.90;;;;;;5021627;28;20551;-70
2021/03/11 08:14:57;;;;;;;521.92;486.75;;;11.40;99.90;;;;;;5013186;28;20499;-70
2021/03/11 08:17:41;;;;;;;228.75;215.40;;;11.40;99.90;;;;;;5030088;28;20050;-70
2021/03/11 08:20:31;;;;;;;240.65;225.88;;;11.40;99.90;;;;;;5104715;27;20057;-70
2021/03/11 08:22:57;;;;;;;224.35;211.57;;;11.40;99.90;;;;;;5012663;28;20050;-70
2021/03/11 08:25:33;;;;;;;290.00;271.25;;;11.40;99.90;;;;;;5020727;28;20058;-70
2021/03/11 08:28:02;;;;;;;196.38;185.05;;;11.40;99.90;;;;;;5012257;28;20497;-70
2021/03/11 08:30:38;;;;;;;637.13;585.72;;;11.40;99.90;;;;;;5001865;28;20058;-70
2021/03/11 08:33:07;;;;;;;186.05;173.95;;;11.40;99.90;;;;;;4981674;28;20046;-70
2021/03/11 08:35:40;;;;;;;443.67;412.25;;;11.40;99.90;;;;;;4996833;28;20408;-70
2021/03/11 08:38:27;;;;;;;212.68;201.00;;;11.50;99.90;;;;;;5091153;27;20486;-70
2021/03/11 08:40:57;;;;;;;461.23;427.67;;;11.50;99.90;;;;;;4994794;28;20044;-69
2021/03/11 08:43:39;;;;;;;315.67;296.20;;;11.40;99.90;;;;;;4991326;28;20913;-70
2021/03/11 08:46:20;;;;;;;398.40;371.40;;;11.40;99.90;;;;;;4998274;28;20168;-69
2021/03/11 08:48:53;;;;;;;149.27;140.65;;;11.40;99.90;;;;;;4995456;28;20049;-70
2021/03/11 08:51:23;;;;;;;277.58;260.70;;;11.40;99.90;;;;;;5002971;28;20412;-70
2021/03/11 08:53:54;;;;;;;332.48;307.05;;;11.40;99.90;;;;;;4999457;28;20065;-70
2021/03/11 08:56:20;;;;;;;294.45;276.05;;;11.40;99.90;;;;;;4995938;28;20062;-70
2021/03/11 08:59:04;;;;;;;330.52;307.10;;;11.40;99.90;;;;;;5000819;28;20126;-70
2021/03/11 09:01:50;;;;;;;211.25;197.43;;;11.40;99.90;;;;;;4998829;28;20050;-70
2021/03/11 09:04:40;;;;;;;488.58;454.48;;;11.50;99.90;;;;;;4989878;28;20131;-70
2021/03/11 09:07:09;;;;;;;292.95;272.63;;;11.60;99.90;;;;;;4991645;28;20053;-70
2021/03/11 09:09:42;;;;;;;507.92;472.30;;;11.70;99.90;;;;;;4994684;28;20176;-71
2021/03/11 09:12:11;;;;;;;426.63;398.10;;;11.70;99.90;;;;;;4996981;28;20121;-70
2021/03/11 09:14:58;;;;;;;514.38;479.17;;;11.90;99.90;;;;;;4995308;28;20054;-70
2021/03/11 09:17:29;;;;;;;274.55;256.50;;;11.90;99.90;;;;;;4996353;28;20406;-70
2021/03/11 09:20:01;;;;;;;521.08;487.02;;;11.80;99.90;;;;;;4999911;28;20161;-70
2021/03/11 09:22:33;;;;;;;417.63;391.98;;;11.80;99.90;;;;;;5001286;28;20050;-70
2021/03/11 09:25:12;;;;;;;644.90;592.28;;;11.80;99.90;;;;;;4998199;28;20045;-70
2021/03/11 09:27:59;;;;;;;217.63;204.98;;;11.70;99.90;;;;;;4994817;28;20145;-70
2021/03/11 09:30:28;;;;;;;234.05;220.27;;;11.70;99.90;;;;;;5006234;28;20043;-70
2021/03/11 09:32:55;;;;;;;473.65;444.30;;;11.70;99.90;;;;;;5000317;28;20462;-70
2021/03/11 09:35:25;;;;;;;335.55;316.38;;;11.70;99.90;;;;;;4995511;28;20558;-70
2021/03/11 09:37:54;;;;;;;601.95;558.50;;;11.70;99.90;;;;;;4998475;28;20111;-70
2021/03/11 09:40:28;;;;;;;244.60;229.60;;;11.60;99.90;;;;;;5001801;28;20469;-70
2021/03/11 09:43:34;;;;;;;321.85;301.25;;;11.60;99.90;;;;;;4993005;28;20046;-71
2021/03/11 09:46:17;;;;;;;344.77;322.33;;;11.60;99.90;;;;;;5001458;28;20050;-70
2021/03/11 09:48:45;;;;;;;309.35;290.85;;;11.60;99.90;;;;;;5000303;28;20046;-70
2021/03/11 09:51:13;;;;;;;288.23;271.55;;;11.60;99.90;;;;;;4991908;28;20066;-70
2021/03/11 09:53:44;;;;;;;620.80;575.60;;;11.60;99.90;;;;;;4991128;28;20156;-71
2021/03/11 09:56:18;;;;;;;569.72;524.33;;;11.60;99.90;;;;;;5008194;28;20038;-70
2021/03/11 09:58:52;;;;;;;371.35;349.20;;;11.60;99.90;;;;;;5018622;28;20311;-70
2021/03/11 10:01:26;;;;;;;360.40;337.33;;;11.70;99.90;;;;;;5003375;28;20095;-70
2021/03/11 10:03:54;;;;;;;222.40;209.00;;;11.70;99.90;;;;;;5049091;28;20047;-70
2021/03/11 10:06:22;;;;;;;662.50;614.80;;;11.70;99.90;;;;;;5012396;28;20046;-71
2021/03/11 10:23:57;;;;;;;421.65;394.63;;;11.70;99.90;;;;;;5006553;28;20174;-70
2021/03/11 10:26:30;;;;;;;172.38;162.45;;;11.80;99.90;;;;;;5051886;28;20137;-70
2021/03/11 10:29:09;;;;;;;250.63;235.52;;;11.90;99.90;;;;;;5018150;28;20046;-70
2021/03/11 10:31:36;;;;;;;495.30;460.63;;;11.90;99.90;;;;;;5040175;28;20082;-70
2021/03/11 10:34:05;;;;;;;573.80;532.85;;;11.90;99.90;;;;;;5013654;28;20046;-70
2021/03/11 10:36:32;;;;;;;239.63;225.02;;;11.90;99.90;;;;;;5029165;28;20046;-70
2021/03/11 10:39:15;;;;;;;414.08;387.55;;;11.90;99.90;;;;;;5026002;28;20475;-70
2021/03/11 10:42:01;;;;;;;314.60;295.92;;;11.90;99.90;;;;;;5019793;28;20119;-70
2021/03/11 10:44:29;;;;;;;631.95;588.45;;;11.90;99.90;;;;;;5007489;28;20157;-70
2021/03/11 10:47:13;;;;;;;572.88;533.35;;;11.90;99.90;;;;;;5036764;28;20137;-70
2021/03/11 10:49:42;;;;;;;431.95;404.02;;;11.80;99.90;;;;;;5003862;28;20550;-70
2021/03/11 10:52:10;;;;;;;526.38;490.73;;;11.80;99.90;;;;;;5025800;28;20099;-70
2021/03/11 10:54:38;;;;;;;811.63;744.10;;;11.80;99.90;;;;;;5034725;28;20501;-70
2021/03/11 10:57:23;;;;;;;463.67;433.23;;;11.80;99.90;;;;;;5012632;28;20503;-70
2021/03/11 10:59:57;;;;;;;377.92;352.85;;;11.80;99.90;;;;;;5009491;28;20501;-70
2021/03/11 11:02:28;;;;;;;428.73;399.00;;;11.80;99.90;;;;;;5013864;28;20141;-70
2021/03/11 11:04:58;;;;;;;362.10;337.50;;;11.70;99.90;;;;;;5112468;27;20122;-70
2021/03/11 11:07:25;;;;;;;753.97;688.10;;;11.70;99.90;;;;;;5026290;28;20052;-70
2021/03/11 11:09:53;;;;;;;300.73;282.40;;;11.60;99.90;;;;;;5019533;28;20096;-71
2021/03/11 11:12:21;;;;;;;868.63;799.20;;;11.60;99.90;;;;;;4992051;28;20079;-70
2021/03/11 11:14:48;;;;;;;480.13;446.55;;;11.60;99.90;;;;;;5006800;28;20711;-71
2021/03/11 11:17:17;;;;;;;399.33;373.38;;;11.60;99.90;;;;;;5002491;28;20137;-70
2021/03/11 11:19:44;;;;;;;863.55;785.75;;;11.60;99.90;;;;;;4993166;28;20687;-70
2021/03/11 11:22:11;;;;;;;635.72;593.47;;;11.60;99.90;;;;;;4991685;28;20549;-70
2021/03/11 11:24:40;;;;;;;377.33;354.75;;;11.70;99.90;;;;;;4996639;28;20138;-70
2021/03/11 11:27:13;;;;;;;238.90;225.80;;;11.60;99.90;;;;;;4997026;28;20088;-70
2021/03/11 11:29:39;;;;;;;394.13;367.63;;;11.70;99.90;;;;;;5009453;28;20609;-70
2021/03/11 11:32:06;;;;;;;612.20;568.10;;;11.70;99.90;;;;;;5013259;28;20085;-70
2021/03/11 11:34:33;;;;;;;322.05;302.35;;;11.80;99.90;;;;;;4992066;28;20061;-70
2021/03/11 11:36:59;;;;;;;389.15;364.15;;;11.90;99.90;;;;;;4994536;28;20038;-70
2021/03/11 11:39:27;;;;;;;440.27;409.33;;;12.00;99.90;;;;;;5003992;28;20060;-71
2021/03/11 11:41:53;;;;;;;208.65;195.95;;;12.00;99.90;;;;;;5008004;28;20062;-71
2021/03/11 11:44:21;;;;;;;318.33;300.45;;;11.90;99.90;;;;;;5009775;28;20072;-71
2021/03/11 11:46:47;;;;;;;538.38;502.05;;;11.90;99.90;;;;;;5007263;28;20148;-70
2021/03/11 11:49:13;;;;;;;369.33;346.45;;;11.90;99.90;;;;;;5006627;28;22168;-71
2021/03/11 11:51:40;;;;;;;228.05;215.23;;;11.90;99.90;;;;;;5002735;28;20572;-70
2021/03/11 11:54:07;;;;;;;287.52;270.77;;;11.90;99.90;;;;;;5003867;28;20149;-70
2021/03/11 11:56:33;;;;;;;279.60;264.00;;;11.90;99.90;;;;;;5008237;28;20052;-71
2021/03/11 11:58:59;;;;;;;587.80;539.22;;;12.00;99.90;;;;;;5002645;28;20721;-71
2021/03/11 12:01:25;;;;;;;706.50;653.83;;;12.00;99.90;;;;;;5002035;28;20052;-70
2021/03/11 12:03:52;;;;;;;369.25;346.42;;;12.00;99.90;;;;;;5003574;28;20054;-70
2021/03/11 12:06:19;;;;;;;369.90;345.25;;;12.00;99.90;;;;;;5103534;27;20062;-70
2021/03/11 12:08:45;;;;;;;364.92;339.45;;;12.00;99.90;;;;;;5006903;28;20052;-70
2021/03/11 12:11:11;;;;;;;346.58;323.40;;;12.00;99.90;;;;;;5008043;28;20073;-70
2021/03/11 12:13:37;;;;;;;488.30;455.50;;;12.00;99.90;;;;;;4997214;28;20065;-70
2021/03/11 12:16:04;;;;;;;438.38;406.63;;;11.90;99.90;;;;;;5006040;28;20053;-70
2021/03/11 12:18:30;;;;;;;270.30;255.20;;;11.90;99.90;;;;;;5003313;28;20110;-71
2021/03/11 12:20:57;;;;;;;289.20;271.92;;;11.90;99.90;;;;;;5005335;28;20577;-71
2021/03/11 12:23:23;;;;;;;252.90;238.15;;;12.00;99.90;;;;;;5015156;28;20056;-70
2021/03/11 12:25:49;;;;;;;430.75;403.08;;;12.00;99.90;;;;;;5005121;28;20053;-70
2021/03/11 12:28:15;;;;;;;457.02;425.08;;;12.10;99.90;;;;;;5005320;28;20503;-70
2021/03/11 12:30:42;;;;;;;317.02;295.75;;;12.10;99.90;;;;;;5007004;28;20060;-71
2021/03/11 12:33:08;;;;;;;251.30;237.77;;;12.10;99.90;;;;;;5013737;28;20045;-71
2021/03/11 12:35:35;;;;;;;274.00;259.30;;;12.10;99.90;;;;;;5005421;28;20708;-71
2021/03/11 12:38:02;;;;;;;278.23;262.08;;;12.20;99.90;;;;;;5003436;28;20165;-70
2021/03/11 12:40:28;;;;;;;168.63;159.25;;;12.20;99.90;;;;;;5004889;28;20056;-70
2021/03/11 12:42:54;;;;;;;381.08;355.25;;;12.30;99.90;;;;;;5003562;28;20132;-70
2021/03/11 12:45:22;;;;;;;575.30;530.17;;;12.30;99.90;;;;;;5006218;28;20042;-71
2021/03/11 12:47:49;;;;;;;370.30;346.77;;;12.40;99.90;;;;;;5003200;28;20045;-70